createdAt,value
2022-11-28T00:01:37.554Z,15.50
2022-11-28T00:04:04.646Z,15.13
2022-11-28T00:06:31.572Z,17.47
2022-11-28T00:08:59.335Z,14.40
2022-11-28T00:11:25.919Z,12.83
2022-11-28T00:13:52.436Z,15.23
2022-11-28T00:16:24.340Z,11.83
2022-11-28T00:18:51.884Z,15.27
2022-11-28T00:21:18.518Z,12.47
2022-11-28T00:23:45.836Z,15.20
2022-11-28T00:26:17.401Z,13.13
2022-11-28T00:28:43.900Z,15.90
2022-11-28T00:31:18.263Z,13.67
2022-11-28T00:33:45.307Z,14.43
2022-11-28T00:36:12.004Z,15.00
2022-11-28T00:38:39.297Z,15.73
2022-11-28T00:41:10.643Z,15.27
2022-11-28T00:43:37.534Z,14.90
2022-11-28T00:46:04.220Z,12.70
2022-11-28T00:48:31.818Z,14.07
2022-11-28T00:51:05.627Z,12.67
2022-11-28T00:53:32.186Z,12.00
2022-11-28T00:55:58.707Z,12.50
2022-11-28T00:58:25.296Z,13.47
2022-11-28T01:00:51.901Z,15.90
2022-11-28T01:03:18.472Z,13.43
2022-11-28T01:05:45.065Z,11.30
2022-11-28T01:08:11.549Z,14.43
2022-11-28T01:10:42.207Z,13.37
2022-11-28T01:13:09.219Z,15.93
2022-11-28T01:15:36.173Z,13.13
2022-11-28T01:18:02.851Z,13.53
2022-11-28T01:20:29.374Z,13.40
2022-11-28T01:22:55.888Z,15.00
2022-11-28T01:25:22.377Z,13.23
2022-11-28T01:27:48.911Z,13.63
2022-11-28T01:30:15.435Z,14.10
2022-11-28T01:32:41.965Z,14.97
2022-11-28T01:35:08.725Z,15.20
2022-11-28T01:37:35.232Z,15.83
2022-11-28T01:40:01.771Z,12.70
2022-11-28T01:42:28.507Z,15.10
2022-11-28T01:44:55.144Z,14.50
2022-11-28T01:47:23.437Z,15.27
2022-11-28T01:49:50.639Z,13.97
2022-11-28T01:52:18.153Z,16.10
2022-11-28T01:54:46.323Z,16.57
2022-11-28T01:57:15.458Z,16.93
2022-11-28T01:59:43.299Z,16.60
2022-11-28T02:02:13.539Z,14.73
2022-11-28T02:04:40.678Z,15.97
2022-11-28T02:07:07.476Z,15.90
2022-11-28T02:09:33.990Z,17.90
2022-11-28T02:12:03.363Z,14.37
2022-11-28T02:14:48.011Z,15.20
2022-11-28T02:17:17.318Z,16.03
2022-11-28T02:20:19.073Z,14.33
2022-11-28T02:22:54.099Z,15.03
2022-11-28T02:25:35.794Z,14.07
2022-11-28T02:28:02.269Z,13.97
2022-11-28T02:30:34.799Z,16.00
2022-11-28T02:33:21.605Z,16.80
2022-11-28T02:35:54.203Z,16.07
2022-11-28T02:38:24.513Z,15.07
2022-11-28T02:41:09.420Z,15.70
2022-11-28T02:43:47.961Z,15.43
2022-11-28T02:46:22.093Z,17.53
2022-11-28T02:49:27.211Z,15.00
2022-11-28T02:51:56.795Z,15.23
2022-11-28T02:54:24.351Z,15.27
2022-11-28T02:56:52.000Z,16.53
2022-11-28T02:59:29.741Z,13.87
2022-11-28T03:01:56.644Z,16.57
2022-11-28T03:04:23.384Z,16.50
2022-11-28T03:06:49.856Z,14.33
2022-11-28T03:09:35.246Z,14.63
2022-11-28T03:12:24.926Z,12.67
2022-11-28T03:14:51.440Z,15.83
2022-11-28T03:17:17.890Z,16.53
2022-11-28T03:19:46.465Z,14.60
2022-11-28T03:22:39.060Z,16.50
2022-11-28T03:25:05.567Z,17.60
2022-11-28T03:27:37.753Z,16.97
2022-11-28T03:30:14.690Z,17.83
2022-11-28T03:32:50.131Z,15.80
2022-11-28T03:35:18.227Z,17.33
2022-11-28T03:37:55.708Z,18.67
2022-11-28T03:40:24.931Z,17.77
2022-11-28T03:42:55.056Z,17.97
2022-11-28T03:45:29.483Z,18.43
2022-11-28T03:47:58.368Z,21.53
2022-11-28T03:50:28.100Z,20.60
2022-11-28T03:52:59.369Z,21.13
2022-11-28T03:55:28.980Z,20.47
2022-11-28T03:58:20.667Z,17.20
2022-11-28T04:00:55.388Z,22.10
2022-11-28T04:03:45.155Z,22.23
2022-11-28T04:06:17.886Z,20.90
2022-11-28T04:08:49.064Z,21.97
2022-11-28T04:11:33.575Z,22.80
2022-11-28T04:14:20.330Z,21.27
2022-11-28T04:17:01.928Z,22.97
2022-11-28T04:19:30.998Z,24.07
2022-11-28T04:22:00.166Z,26.17
2022-11-28T04:24:34.882Z,29.00
2022-11-28T04:27:07.084Z,26.70
2022-11-28T04:29:36.234Z,27.63
2022-11-28T04:32:04.095Z,27.87
2022-11-28T04:34:32.291Z,23.53
2022-11-28T04:36:59.911Z,23.37
2022-11-28T04:39:27.927Z,24.37
2022-11-28T04:42:10.549Z,24.90
2022-11-28T04:44:57.576Z,24.53
2022-11-28T04:47:24.922Z,20.53
2022-11-28T04:49:51.795Z,23.53
2022-11-28T04:52:24.980Z,24.13
2022-11-28T04:55:10.373Z,24.30
2022-11-28T04:57:38.721Z,26.83
2022-11-28T05:00:07.211Z,24.33
2022-11-28T05:02:34.386Z,22.27
2022-11-28T05:05:00.974Z,23.80
2022-11-28T05:07:27.476Z,23.57
2022-11-28T05:09:55.650Z,23.50
2022-11-28T05:12:22.129Z,27.43
2022-11-28T05:14:48.669Z,27.57
2022-11-28T05:17:15.145Z,28.33
2022-11-28T05:19:41.585Z,25.47
2022-11-28T05:22:08.133Z,26.97
2022-11-28T05:24:34.669Z,24.20
2022-11-28T05:27:01.222Z,26.80
2022-11-28T05:29:27.790Z,25.20
2022-11-28T05:31:54.434Z,26.17
2022-11-28T05:34:21.077Z,43.73
2022-11-28T05:36:47.608Z,32.23
2022-11-28T05:39:14.098Z,26.43
2022-11-28T05:41:40.610Z,27.13
2022-11-28T05:44:07.118Z,27.07
2022-11-28T05:46:33.631Z,29.00
2022-11-28T05:49:00.183Z,26.53
2022-11-28T05:51:26.660Z,26.13
2022-11-28T05:53:53.197Z,27.73
2022-11-28T05:56:20.650Z,29.43
2022-11-28T05:58:47.202Z,29.43
2022-11-28T06:01:21.274Z,29.70
2022-11-28T06:03:47.885Z,25.90
2022-11-28T06:06:18.916Z,27.37
2022-11-28T06:08:46.182Z,23.87
2022-11-28T06:11:14.916Z,28.87
2022-11-28T06:13:45.438Z,27.43
2022-11-28T06:16:13.235Z,27.43
2022-11-28T06:18:40.192Z,27.57
2022-11-28T06:21:07.366Z,24.37
2022-11-28T06:23:34.068Z,27.70
2022-11-28T06:26:07.618Z,26.07
2022-11-28T06:28:34.245Z,27.33
2022-11-28T06:31:01.263Z,26.40
2022-11-28T06:33:27.809Z,25.80
2022-11-28T06:36:04.407Z,28.07
2022-11-28T06:38:31.163Z,30.33
2022-11-28T06:40:58.675Z,30.33
2022-11-28T06:43:25.463Z,27.77
2022-11-28T06:45:52.159Z,26.30
2022-11-28T06:48:19.136Z,24.87
2022-11-28T06:50:45.647Z,27.98
2022-11-28T06:53:12.157Z,25.93
2022-11-28T06:55:38.867Z,23.90
2022-11-28T06:58:05.398Z,25.57
2022-11-28T07:00:32.260Z,21.90
2022-11-28T07:02:58.877Z,25.57
2022-11-28T07:05:27.799Z,24.63
2022-11-28T07:07:54.973Z,22.47
2022-11-28T07:10:21.708Z,25.93
2022-11-28T07:12:52.963Z,23.07
2022-11-28T07:15:19.471Z,28.00
2022-11-28T07:17:45.980Z,29.30
2022-11-28T07:20:12.682Z,28.02
2022-11-28T07:22:39.191Z,27.60
2022-11-28T07:25:05.960Z,31.10
2022-11-28T07:27:32.519Z,28.10
2022-11-28T07:29:59.007Z,25.80
2022-11-28T07:32:25.501Z,26.23
2022-11-28T07:34:52.010Z,25.90
2022-11-28T07:37:18.521Z,25.97
2022-11-28T07:39:45.628Z,25.20
2022-11-28T07:42:12.357Z,29.87
2022-11-28T07:44:38.859Z,26.33
2022-11-28T07:47:05.450Z,27.43
2022-11-28T07:49:32.300Z,26.50
2022-11-28T07:51:58.954Z,30.20
2022-11-28T07:54:25.449Z,26.27
2022-11-28T07:59:38.534Z,25.20
2022-11-28T08:02:05.154Z,25.17
2022-11-28T08:04:31.717Z,23.13
2022-11-28T08:06:58.331Z,23.53
2022-11-28T08:09:24.912Z,24.13
2022-11-28T08:11:52.501Z,21.30
2022-11-28T08:14:19.066Z,27.50
2022-11-28T08:16:45.792Z,22.43
2022-11-28T08:19:12.439Z,25.23
2022-11-28T08:21:38.939Z,24.97
2022-11-28T08:24:05.711Z,23.97
2022-11-28T08:26:32.775Z,21.30
2022-11-28T08:29:00.017Z,20.40
2022-11-28T08:31:36.761Z,23.77
2022-11-28T08:34:05.192Z,21.23
2022-11-28T08:36:31.742Z,27.83
2022-11-28T08:41:46.288Z,22.07
2022-11-28T08:44:13.068Z,20.43
2022-11-28T08:46:39.623Z,22.33
2022-11-28T08:49:06.237Z,23.90
2022-11-28T08:51:32.807Z,20.33
2022-11-28T08:54:00.066Z,24.23
2022-11-28T08:56:27.101Z,26.33
2022-11-28T08:58:53.606Z,31.17
2022-11-28T09:01:21.833Z,27.50
2022-11-28T09:03:48.806Z,23.73
2022-11-28T09:06:16.068Z,24.03
2022-11-28T09:08:42.536Z,20.97
2022-11-28T09:11:09.771Z,24.07
2022-11-28T09:13:37.275Z,22.87
2022-11-28T09:16:04.318Z,20.97
2022-11-28T09:18:31.132Z,19.67
2022-11-28T09:20:58.491Z,19.63
2022-11-28T09:23:24.944Z,21.17
2022-11-28T09:25:51.417Z,20.73
2022-11-28T09:28:17.906Z,19.17
2022-11-28T09:30:44.428Z,21.23
2022-11-28T09:33:12.544Z,21.00
2022-11-28T09:35:39.477Z,21.20
2022-11-28T09:38:06.424Z,20.43
2022-11-28T09:40:36.327Z,19.80
2022-11-28T09:43:04.175Z,18.60
2022-11-28T09:45:33.117Z,16.60
2022-11-28T09:48:19.545Z,17.67
2022-11-28T09:50:46.862Z,18.10
2022-11-28T09:53:13.328Z,21.40
2022-11-28T09:55:42.026Z,42.10
2022-11-28T09:58:28.824Z,32.47
2022-11-28T10:01:01.284Z,23.27
2022-11-28T10:03:46.311Z,26.17
2022-11-28T10:06:17.535Z,18.63
2022-11-28T10:08:56.326Z,21.47
2022-11-28T10:11:37.891Z,19.40
2022-11-28T10:14:08.671Z,20.87
2022-11-28T10:16:52.386Z,20.77
2022-11-28T10:19:46.499Z,19.13
2022-11-28T10:22:11.633Z,17.03
2022-11-28T10:24:40.215Z,19.50
2022-11-28T10:27:07.354Z,16.17
2022-11-28T10:29:48.699Z,13.97
2022-11-28T10:32:17.519Z,16.03
2022-11-28T10:34:58.481Z,15.53
2022-11-28T10:37:29.517Z,16.40
2022-11-28T10:40:15.652Z,16.60
2022-11-28T10:42:46.435Z,16.30
2022-11-28T10:45:12.966Z,17.53
2022-11-28T10:47:39.398Z,16.77
2022-11-28T10:50:15.092Z,15.57
2022-11-28T10:52:59.104Z,15.77
2022-11-28T10:55:28.485Z,16.27
2022-11-28T10:58:00.715Z,15.10
2022-11-28T11:00:27.284Z,17.20
2022-11-28T11:02:55.407Z,15.87
2022-11-28T11:05:25.570Z,15.83
2022-11-28T11:07:57.471Z,12.77
2022-11-28T11:10:30.504Z,14.17
2022-11-28T11:12:58.182Z,15.77
2022-11-28T11:15:29.853Z,17.07
2022-11-28T11:17:56.737Z,15.97
2022-11-28T11:20:23.245Z,17.60
2022-11-28T11:22:56.862Z,14.03
2022-11-28T11:25:24.676Z,15.10
2022-11-28T11:28:00.948Z,22.07
2022-11-28T11:30:38.811Z,17.17
2022-11-28T11:33:06.844Z,14.43
2022-11-28T11:35:41.789Z,13.87
2022-11-28T11:38:17.490Z,14.40
2022-11-28T11:40:44.091Z,15.23
2022-11-28T11:43:23.613Z,13.93
2022-11-28T11:46:04.088Z,14.30
2022-11-28T11:48:34.960Z,16.53
2022-11-28T11:51:01.527Z,16.50
2022-11-28T11:53:28.017Z,13.20
2022-11-28T11:55:55.830Z,14.60
2022-11-28T11:58:24.705Z,13.57
2022-11-28T12:00:53.887Z,13.57
2022-11-28T12:03:25.461Z,14.67
2022-11-28T12:06:13.704Z,14.73
2022-11-28T12:08:47.819Z,28.20
2022-11-28T12:11:35.497Z,20.00
2022-11-28T12:14:14.191Z,22.67
2022-11-28T12:16:49.607Z,20.47
2022-11-28T12:19:31.228Z,17.07
2022-11-28T12:22:16.577Z,14.83
2022-11-28T12:24:55.021Z,17.57
2022-11-28T12:27:21.517Z,15.37
2022-11-28T12:30:00.379Z,14.67
2022-11-28T12:32:26.853Z,37.03
2022-11-28T12:35:22.843Z,17.13
2022-11-28T12:38:16.594Z,32.83
2022-11-28T12:40:48.876Z,24.37
2022-11-28T12:43:21.326Z,15.63
2022-11-28T12:45:47.762Z,15.67
2022-11-28T12:48:14.241Z,18.83
2022-11-28T12:50:42.987Z,22.43
2022-11-28T12:53:24.674Z,17.53
2022-11-28T12:55:58.891Z,12.57
2022-11-28T12:58:39.166Z,14.67
2022-11-28T13:01:25.755Z,17.93
2022-11-28T13:03:58.255Z,19.67
2022-11-28T13:06:36.529Z,17.23
2022-11-28T13:09:11.167Z,18.03
2022-11-28T13:11:56.805Z,14.53
2022-11-28T13:14:36.711Z,13.93
2022-11-28T13:17:17.954Z,25.50
2022-11-28T13:19:50.531Z,17.10
2022-11-28T13:22:35.858Z,17.03
2022-11-28T13:25:05.153Z,16.77
2022-11-28T13:27:48.446Z,15.63
2022-11-28T13:30:28.843Z,16.70
2022-11-28T13:32:55.384Z,17.37
2022-11-28T13:35:22.451Z,15.70
2022-11-28T13:40:51.783Z,14.30
2022-11-28T13:43:24.158Z,17.13
2022-11-28T13:45:52.630Z,17.33
2022-11-28T13:49:06.175Z,17.57
2022-11-28T13:51:31.878Z,16.43
2022-11-28T13:54:17.506Z,15.00
2022-11-28T13:56:48.645Z,16.87
2022-11-28T13:59:21.582Z,16.47
2022-11-28T14:01:55.400Z,18.37
2022-11-28T14:04:22.661Z,19.53
2022-11-28T14:06:52.205Z,24.90
2022-11-28T14:09:22.522Z,19.23
2022-11-28T14:12:08.068Z,17.13
2022-11-28T14:14:34.538Z,21.93
2022-11-28T14:17:16.738Z,16.37
2022-11-28T14:20:02.119Z,17.67
2022-11-28T14:22:36.021Z,16.43
2022-11-28T14:25:13.321Z,19.10
2022-11-28T14:27:47.055Z,19.77
2022-11-28T14:30:29.154Z,17.50
2022-11-28T14:33:01.226Z,18.00
2022-11-28T14:35:46.546Z,16.60
2022-11-28T14:38:31.038Z,20.20
2022-11-28T14:41:01.377Z,14.87
2022-11-28T14:43:34.976Z,17.03
2022-11-28T14:46:20.388Z,18.47
2022-11-28T14:49:11.586Z,13.67
2022-11-28T14:51:43.985Z,16.00
2022-11-28T14:54:36.962Z,15.57
2022-11-28T14:57:17.783Z,20.37
2022-11-28T14:59:44.745Z,17.47
2022-11-28T15:02:11.450Z,14.93
2022-11-28T15:04:56.405Z,16.17
2022-11-28T15:07:28.587Z,16.70
2022-11-28T15:10:07.548Z,13.90
2022-11-28T15:12:49.140Z,15.27
2022-11-28T15:15:17.551Z,18.30
2022-11-28T15:17:45.741Z,15.67
2022-11-28T15:20:18.423Z,14.90
2022-11-28T15:22:45.622Z,27.50
2022-11-28T15:25:19.262Z,28.40
2022-11-28T15:27:45.829Z,22.67
2022-11-28T15:30:16.847Z,29.13
2022-11-28T15:32:43.576Z,29.17
2022-11-28T15:35:12.909Z,38.70
2022-11-28T15:37:45.651Z,39.73
2022-11-28T15:40:17.470Z,37.77
2022-11-28T15:42:47.891Z,26.37
2022-11-28T15:45:28.058Z,23.33
2022-11-28T15:47:55.702Z,20.20
2022-11-28T15:50:22.684Z,27.50
2022-11-28T15:53:15.309Z,17.83
2022-11-28T15:55:42.830Z,26.93
2022-11-28T15:58:18.039Z,42.70
2022-11-28T16:00:46.597Z,32.30
2022-11-28T16:03:15.476Z,20.93
2022-11-28T16:05:43.456Z,25.30
2022-11-28T16:08:21.719Z,26.37
2022-11-28T16:10:48.472Z,24.47
2022-11-28T16:13:18.544Z,31.50
2022-11-28T16:15:51.652Z,28.17
2022-11-28T16:18:18.539Z,26.43
2022-11-28T16:20:45.653Z,26.83
2022-11-28T16:23:25.797Z,22.70
2022-11-28T16:26:18.527Z,20.17
2022-11-28T16:28:55.611Z,19.07
2022-11-28T16:31:24.848Z,19.40
2022-11-28T16:33:52.087Z,19.17
2022-11-28T16:36:23.226Z,17.17
2022-11-28T16:38:51.389Z,18.43
2022-11-28T16:41:22.407Z,22.37
2022-11-28T16:43:50.359Z,21.37
2022-11-28T16:46:21.245Z,20.83
2022-11-28T16:48:49.396Z,18.53
2022-11-28T16:51:22.000Z,18.13
2022-11-28T16:53:49.472Z,20.67
2022-11-28T16:56:25.367Z,18.03
2022-11-28T16:58:54.222Z,19.73
2022-11-28T17:01:21.725Z,20.87
2022-11-28T17:03:52.271Z,20.80
2022-11-28T17:06:21.063Z,20.87
2022-11-28T17:08:47.658Z,19.47
2022-11-28T17:11:15.528Z,20.70
2022-11-28T17:13:42.076Z,20.87
2022-11-28T17:16:16.216Z,20.53
2022-11-28T17:18:43.135Z,21.10
2022-11-28T17:21:11.334Z,22.63
2022-11-28T17:23:37.911Z,19.23
2022-11-28T17:26:04.550Z,18.90
2022-11-28T17:28:31.076Z,20.03
2022-11-28T17:30:57.526Z,24.87
2022-11-28T17:33:24.049Z,21.30
2022-11-28T17:35:51.994Z,22.47
2022-11-28T17:38:20.072Z,22.73
2022-11-28T17:40:46.854Z,24.60
2022-11-28T17:43:17.750Z,22.23
2022-11-28T17:45:44.648Z,21.30
2022-11-28T17:48:13.796Z,20.23
2022-11-28T17:50:41.347Z,20.93
2022-11-28T17:53:12.525Z,22.63
2022-11-28T17:55:40.635Z,23.43
2022-11-28T17:58:08.418Z,24.20
2022-11-28T18:00:35.560Z,27.83
2022-11-28T18:03:02.116Z,27.23
2022-11-28T18:05:28.708Z,24.30
2022-11-28T18:07:55.397Z,24.87
2022-11-28T18:10:21.979Z,26.73
2022-11-28T18:12:48.678Z,26.23
2022-11-28T18:15:15.257Z,23.07
2022-11-28T18:17:41.857Z,23.10
2022-11-28T18:20:08.618Z,31.63
2022-11-28T18:22:35.482Z,26.73
2022-11-28T18:25:02.745Z,32.67
2022-11-28T18:27:29.291Z,117.73
2022-11-28T18:29:55.845Z,132.80
2022-11-28T18:32:22.965Z,73.37
2022-11-28T18:34:49.797Z,75.17
2022-11-28T18:37:16.752Z,51.83
2022-11-28T18:39:43.556Z,35.13
2022-11-28T18:42:10.458Z,29.93
2022-11-28T18:44:37.016Z,28.47
2022-11-28T18:47:03.558Z,25.50
2022-11-28T18:49:30.056Z,24.00
2022-11-28T18:51:57.073Z,22.03
2022-11-28T18:54:23.636Z,25.10
2022-11-28T18:56:50.195Z,26.33
2022-11-28T18:59:16.935Z,24.10
2022-11-28T19:01:43.704Z,27.83
2022-11-28T19:04:11.612Z,30.23
2022-11-28T19:06:39.586Z,23.63
2022-11-28T19:09:09.504Z,25.53
2022-11-28T19:11:36.483Z,24.00
2022-11-28T19:14:03.508Z,26.13
2022-11-28T19:16:31.502Z,30.00
2022-11-28T19:18:58.721Z,26.77
2022-11-28T19:21:27.249Z,28.87
2022-11-28T19:23:56.253Z,24.83
2022-11-28T19:26:23.469Z,24.83
2022-11-28T19:28:50.603Z,25.90
2022-11-28T19:31:17.232Z,26.73
2022-11-28T19:33:44.309Z,26.93
2022-11-28T19:36:13.032Z,26.70
2022-11-28T19:38:40.311Z,27.33
2022-11-28T19:41:07.218Z,29.07
2022-11-28T19:43:34.062Z,25.53
2022-11-28T19:46:01.086Z,28.27
2022-11-28T19:48:28.275Z,26.87
2022-11-28T19:50:55.417Z,24.57
2022-11-28T19:53:22.367Z,23.40
2022-11-28T19:55:49.527Z,25.57
2022-11-28T19:58:17.338Z,24.23
2022-11-28T20:00:44.764Z,25.73
2022-11-28T20:03:11.294Z,24.10
2022-11-28T20:05:39.908Z,21.87
2022-11-28T20:08:07.216Z,25.00
2022-11-28T20:10:37.818Z,25.87
2022-11-28T20:13:04.792Z,26.70
2022-11-28T20:15:34.798Z,27.63
2022-11-28T20:18:02.995Z,26.77
2022-11-28T20:20:29.570Z,25.83
2022-11-28T20:22:57.510Z,26.53
2022-11-28T20:25:24.084Z,27.90
2022-11-28T20:27:51.407Z,25.07
2022-11-28T20:30:18.434Z,26.10
2022-11-28T20:32:44.951Z,25.97
2022-11-28T20:35:11.629Z,33.00
2022-11-28T20:37:39.285Z,27.73
2022-11-28T20:40:06.365Z,31.67
2022-11-28T20:42:39.817Z,25.80
2022-11-28T20:45:06.900Z,33.50
2022-11-28T20:47:34.918Z,31.27
2022-11-28T20:50:01.523Z,27.30
2022-11-28T20:52:28.113Z,30.30
2022-11-28T20:54:54.604Z,31.47
2022-11-28T20:57:22.469Z,28.67
2022-11-28T20:59:49.242Z,28.87
2022-11-28T21:02:15.889Z,27.87
2022-11-28T21:04:42.518Z,29.00
2022-11-28T21:07:09.114Z,30.47
2022-11-28T21:09:35.859Z,28.00
2022-11-28T21:12:02.390Z,28.00
2022-11-28T21:14:31.104Z,28.97
2022-11-28T21:16:58.097Z,28.10
2022-11-28T21:19:24.820Z,28.77
2022-11-28T21:21:51.329Z,28.10
2022-11-28T21:24:17.998Z,30.97
2022-11-28T21:26:49.695Z,31.60
2022-11-28T21:29:19.994Z,31.73
2022-11-28T21:31:46.862Z,32.37
2022-11-28T21:34:14.777Z,30.00
2022-11-28T21:36:41.466Z,34.10
2022-11-28T21:39:09.140Z,30.60
2022-11-28T21:41:35.722Z,31.47
2022-11-28T21:44:03.742Z,26.37
2022-11-28T21:46:30.434Z,28.07
2022-11-28T21:48:58.721Z,30.43
2022-11-28T21:51:25.916Z,27.40
2022-11-28T21:53:52.439Z,26.90
2022-11-28T21:56:19.855Z,26.93
2022-11-28T21:58:47.575Z,29.77
2022-11-28T22:01:14.594Z,33.83
2022-11-28T22:03:43.754Z,30.73
2022-11-28T22:06:15.786Z,29.63
2022-11-28T22:08:42.747Z,30.77
2022-11-28T22:11:11.242Z,29.40
2022-11-28T22:13:38.973Z,29.43
2022-11-28T22:16:14.047Z,28.80
2022-11-28T22:18:40.664Z,32.07
2022-11-28T22:21:22.601Z,29.90
2022-11-28T22:23:58.156Z,31.27
2022-11-28T22:26:24.718Z,29.47
2022-11-28T22:28:53.931Z,35.30
2022-11-28T22:31:22.869Z,29.47
2022-11-28T22:33:50.164Z,29.50
2022-11-28T22:36:17.866Z,26.00
2022-11-28T22:38:45.445Z,28.40
2022-11-28T22:41:13.562Z,27.53
2022-11-28T22:43:40.680Z,26.93
2022-11-28T22:46:08.219Z,28.53
2022-11-28T22:48:35.530Z,27.87
2022-11-28T22:51:09.719Z,28.27
2022-11-28T22:53:36.375Z,29.23
2022-11-28T22:56:06.826Z,32.90
2022-11-28T22:58:42.247Z,29.47
2022-11-28T23:01:11.183Z,29.87
2022-11-28T23:03:37.936Z,30.80
2022-11-28T23:06:09.447Z,29.23
2022-11-28T23:08:36.212Z,32.73
2022-11-28T23:11:07.237Z,29.57
2022-11-28T23:13:34.519Z,28.40
2022-11-28T23:16:14.578Z,28.57
2022-11-28T23:18:41.204Z,29.50
2022-11-28T23:21:07.829Z,33.70
2022-11-28T23:23:35.051Z,33.80
2022-11-28T23:26:09.071Z,31.17
2022-11-28T23:28:36.369Z,28.23
2022-11-28T23:31:10.434Z,30.37
2022-11-28T23:33:37.762Z,30.50
2022-11-28T23:36:11.782Z,29.43
2022-11-28T23:38:38.370Z,30.57
2022-11-28T23:41:04.846Z,31.53
2022-11-28T23:43:32.408Z,27.87
2022-11-28T23:45:58.931Z,30.53
2022-11-28T23:48:25.616Z,29.17
2022-11-28T23:50:52.124Z,31.73
2022-11-28T23:53:18.625Z,29.43
2022-11-28T23:55:45.152Z,29.77
2022-11-28T23:58:11.656Z,28.73
